sensor_id;sensor_type;location;lat;lon;timestamp;P1;durP1;ratioP1;P2;durP2;ratioP2
80115;SDS011;69423;47.608;19.366;2023-10-13T00:00:30;23.37;;;23.33;;
80115;SDS011;69423;47.608;19.366;2023-10-13T00:01:05;21.90;;;21.90;;
80115;SDS011;69423;47.608;19.366;2023-10-13T00:01:37;22.03;;;22.03;;
80115;SDS011;69423;47.608;19.366;2023-10-13T00:02:08;22.27;;;22.27;;
80115;SDS011;69423;47.608;19.366;2023-10-13T00:02:39;22.87;;;22.87;;
80115;SDS011;69423;47.608;19.366;2023-10-13T00:03:11;23.47;;;23.47;;
80115;SDS011;69423;47.608;19.366;2023-10-13T00:03:52;23.27;;;23.27;;
80115;SDS011;69423;47.608;19.366;2023-10-13T00:04:23;23.13;;;23.13;;
80115;SDS011;69423;47.608;19.366;2023-10-13T00:04:58;22.30;;;22.30;;
80115;SDS011;69423;47.608;19.366;2023-10-13T00:05:30;21.93;;;21.93;;
80115;SDS011;69423;47.608;19.366;2023-10-13T00:06:02;22.13;;;22.13;;
80115;SDS011;69423;47.608;19.366;2023-10-13T00:06:34;22.83;;;22.83;;
80115;SDS011;69423;47.608;19.366;2023-10-13T00:07:05;23.10;;;23.03;;
80115;SDS011;69423;47.608;19.366;2023-10-13T00:07:39;23.03;;;23.03;;
80115;SDS011;69423;47.608;19.366;2023-10-13T00:08:11;23.50;;;23.50;;
80115;SDS011;69423;47.608;19.366;2023-10-13T00:08:44;22.70;;;22.70;;
80115;SDS011;69423;47.608;19.366;2023-10-13T00:09:16;21.80;;;21.80;;
80115;SDS011;69423;47.608;19.366;2023-10-13T00:09:47;21.37;;;21.37;;
80115;SDS011;69423;47.608;19.366;2023-10-13T00:10:18;21.53;;;21.53;;
80115;SDS011;69423;47.608;19.366;2023-10-13T00:10:49;22.13;;;22.13;;
80115;SDS011;69423;47.608;19.366;2023-10-13T00:11:20;22.30;;;22.30;;
80115;SDS011;69423;47.608;19.366;2023-10-13T00:11:53;22.70;;;22.67;;
80115;SDS011;69423;47.608;19.366;2023-10-13T00:12:25;21.77;;;21.77;;
80115;SDS011;69423;47.608;19.366;2023-10-13T00:12:57;21.83;;;21.83;;
80115;SDS011;69423;47.608;19.366;2023-10-13T00:13:43;22.20;;;22.20;;
80115;SDS011;69423;47.608;19.366;2023-10-13T00:14:20;23.27;;;23.27;;
80115;SDS011;69423;47.608;19.366;2023-10-13T00:14:52;23.13;;;23.13;;
80115;SDS011;69423;47.608;19.366;2023-10-13T00:15:24;22.23;;;21.80;;
80115;SDS011;69423;47.608;19.366;2023-10-13T00:15:58;22.53;;;22.47;;
80115;SDS011;69423;47.608;19.366;2023-10-13T00:16:29;22.07;;;22.07;;
80115;SDS011;69423;47.608;19.366;2023-10-13T00:17:02;22.03;;;22.03;;
80115;SDS011;69423;47.608;19.366;2023-10-13T00:17:35;22.60;;;22.60;;
80115;SDS011;69423;47.608;19.366;2023-10-13T00:18:09;21.73;;;21.73;;
80115;SDS011;69423;47.608;19.366;2023-10-13T00:18:43;21.67;;;21.67;;
80115;SDS011;69423;47.608;19.366;2023-10-13T00:19:14;21.40;;;21.40;;
80115;SDS011;69423;47.608;19.366;2023-10-13T00:19:46;22.33;;;22.33;;
80115;SDS011;69423;47.608;19.366;2023-10-13T00:20:22;21.53;;;21.53;;
80115;SDS011;69423;47.608;19.366;2023-10-13T00:21:06;21.33;;;21.33;;
80115;SDS011;69423;47.608;19.366;2023-10-13T00:21:43;21.63;;;21.60;;
80115;SDS011;69423;47.608;19.366;2023-10-13T00:22:14;21.97;;;21.97;;
80115;SDS011;69423;47.608;19.366;2023-10-13T00:22:53;22.20;;;22.20;;
80115;SDS011;69423;47.608;19.366;2023-10-13T00:23:27;21.93;;;21.90;;
80115;SDS011;69423;47.608;19.366;2023-10-13T00:23:59;21.87;;;21.87;;
80115;SDS011;69423;47.608;19.366;2023-10-13T00:24:32;21.10;;;21.10;;
80115;SDS011;69423;47.608;19.366;2023-10-13T00:25:11;22.33;;;22.33;;
80115;SDS011;69423;47.608;19.366;2023-10-13T00:25:49;21.50;;;21.47;;
80115;SDS011;69423;47.608;19.366;2023-10-13T00:26:22;21.80;;;21.80;;
80115;SDS011;69423;47.608;19.366;2023-10-13T00:26:55;21.63;;;21.63;;
80115;SDS011;69423;47.608;19.366;2023-10-13T00:27:28;20.87;;;20.87;;
80115;SDS011;69423;47.608;19.366;2023-10-13T00:28:02;21.80;;;21.80;;
80115;SDS011;69423;47.608;19.366;2023-10-13T00:28:34;21.80;;;21.80;;
80115;SDS011;69423;47.608;19.366;2023-10-13T00:29:28;21.40;;;21.40;;
80115;SDS011;69423;47.608;19.366;2023-10-13T00:30:08;21.30;;;21.30;;
80115;SDS011;69423;47.608;19.366;2023-10-13T00:30:48;20.57;;;20.57;;
80115;SDS011;69423;47.608;19.366;2023-10-13T00:31:23;20.43;;;20.43;;
80115;SDS011;69423;47.608;19.366;2023-10-13T00:31:54;20.53;;;20.53;;
80115;SDS011;69423;47.608;19.366;2023-10-13T00:32:25;21.03;;;21.03;;
80115;SDS011;69423;47.608;19.366;2023-10-13T00:32:57;20.37;;;20.37;;
80115;SDS011;69423;47.608;19.366;2023-10-13T00:33:29;20.57;;;20.57;;
80115;SDS011;69423;47.608;19.366;2023-10-13T00:34:02;20.27;;;20.27;;
80115;SDS011;69423;47.608;19.366;2023-10-13T00:34:49;20.57;;;20.57;;
80115;SDS011;69423;47.608;19.366;2023-10-13T00:35:28;20.67;;;20.67;;
80115;SDS011;69423;47.608;19.366;2023-10-13T00:36:06;20.90;;;20.90;;
80115;SDS011;69423;47.608;19.366;2023-10-13T00:36:38;20.70;;;20.70;;
80115;SDS011;69423;47.608;19.366;2023-10-13T00:37:39;20.90;;;20.90;;
80115;SDS011;69423;47.608;19.366;2023-10-13T00:38:17;20.40;;;20.40;;
80115;SDS011;69423;47.608;19.366;2023-10-13T00:38:49;20.80;;;20.80;;
80115;SDS011;69423;47.608;19.366;2023-10-13T00:39:20;21.00;;;21.00;;
80115;SDS011;69423;47.608;19.366;2023-10-13T00:39:53;21.40;;;21.40;;
80115;SDS011;69423;47.608;19.366;2023-10-13T00:40:27;22.00;;;22.00;;
80115;SDS011;69423;47.608;19.366;2023-10-13T00:41:18;21.40;;;21.40;;
80115;SDS011;69423;47.608;19.366;2023-10-13T00:42:04;21.47;;;21.47;;
80115;SDS011;69423;47.608;19.366;2023-10-13T00:42:39;21.43;;;21.43;;
80115;SDS011;69423;47.608;19.366;2023-10-13T00:43:22;21.57;;;21.57;;
80115;SDS011;69423;47.608;19.366;2023-10-13T00:43:54;22.07;;;22.07;;
80115;SDS011;69423;47.608;19.366;2023-10-13T00:44:40;21.20;;;21.20;;
80115;SDS011;69423;47.608;19.366;2023-10-13T00:45:15;21.53;;;21.53;;
80115;SDS011;69423;47.608;19.366;2023-10-13T00:45:49;21.70;;;21.70;;
80115;SDS011;69423;47.608;19.366;2023-10-13T00:46:28;21.23;;;21.23;;
80115;SDS011;69423;47.608;19.366;2023-10-13T00:47:04;21.67;;;21.67;;
80115;SDS011;69423;47.608;19.366;2023-10-13T00:47:38;21.63;;;21.63;;
80115;SDS011;69423;47.608;19.366;2023-10-13T00:48:09;22.00;;;22.00;;
80115;SDS011;69423;47.608;19.366;2023-10-13T00:48:44;20.93;;;20.93;;
80115;SDS011;69423;47.608;19.366;2023-10-13T00:49:22;20.40;;;20.40;;
80115;SDS011;69423;47.608;19.366;2023-10-13T00:49:54;21.30;;;21.30;;
80115;SDS011;69423;47.608;19.366;2023-10-13T00:50:26;22.37;;;22.37;;
80115;SDS011;69423;47.608;19.366;2023-10-13T00:51:01;21.47;;;21.47;;
80115;SDS011;69423;47.608;19.366;2023-10-13T00:51:33;21.47;;;21.43;;
80115;SDS011;69423;47.608;19.366;2023-10-13T00:52:06;21.40;;;21.40;;
80115;SDS011;69423;47.608;19.366;2023-10-13T00:52:40;20.83;;;20.83;;
80115;SDS011;69423;47.608;19.366;2023-10-13T00:53:17;22.13;;;22.13;;
80115;SDS011;69423;47.608;19.366;2023-10-13T00:53:51;21.93;;;21.93;;
80115;SDS011;69423;47.608;19.366;2023-10-13T00:54:23;21.17;;;21.17;;
80115;SDS011;69423;47.608;19.366;2023-10-13T00:54:57;21.77;;;21.77;;
80115;SDS011;69423;47.608;19.366;2023-10-13T00:55:30;20.97;;;20.97;;
80115;SDS011;69423;47.608;19.366;2023-10-13T00:56:04;20.03;;;20.00;;
80115;SDS011;69423;47.608;19.366;2023-10-13T00:56:41;21.43;;;21.43;;
80115;SDS011;69423;47.608;19.366;2023-10-13T00:57:39;21.13;;;21.13;;
80115;SDS011;69423;47.608;19.366;2023-10-13T00:58:11;21.77;;;21.77;;
80115;SDS011;69423;47.608;19.366;2023-10-13T00:58:45;21.20;;;21.20;;
80115;SDS011;69423;47.608;19.366;2023-10-13T00:59:17;21.27;;;21.27;;
80115;SDS011;69423;47.608;19.366;2023-10-13T00:59:48;21.63;;;21.63;;
80115;SDS011;69423;47.608;19.366;2023-10-13T01:00:20;20.80;;;20.80;;
80115;SDS011;69423;47.608;19.366;2023-10-13T01:00:55;21.70;;;21.70;;
80115;SDS011;69423;47.608;19.366;2023-10-13T01:01:27;22.53;;;22.53;;
80115;SDS011;69423;47.608;19.366;2023-10-13T01:02:07;20.63;;;20.63;;
80115;SDS011;69423;47.608;19.366;2023-10-13T01:03:04;21.20;;;21.20;;
80115;SDS011;69423;47.608;19.366;2023-10-13T01:03:37;21.60;;;21.60;;
80115;SDS011;69423;47.608;19.366;2023-10-13T01:04:09;22.20;;;22.20;;
80115;SDS011;69423;47.608;19.366;2023-10-13T01:04:43;21.70;;;21.70;;
80115;SDS011;69423;47.608;19.366;2023-10-13T01:05:17;21.73;;;21.73;;
80115;SDS011;69423;47.608;19.366;2023-10-13T01:05:50;21.47;;;21.47;;
80115;SDS011;69423;47.608;19.366;2023-10-13T01:06:25;22.63;;;22.63;;
80115;SDS011;69423;47.608;19.366;2023-10-13T01:06:59;22.20;;;22.13;;
80115;SDS011;69423;47.608;19.366;2023-10-13T01:07:30;22.00;;;21.87;;
80115;SDS011;69423;47.608;19.366;2023-10-13T01:08:02;21.77;;;21.70;;
80115;SDS011;69423;47.608;19.366;2023-10-13T01:08:34;21.93;;;21.87;;
80115;SDS011;69423;47.608;19.366;2023-10-13T01:09:09;23.20;;;23.20;;
80115;SDS011;69423;47.608;19.366;2023-10-13T01:09:42;23.53;;;23.40;;
80115;SDS011;69423;47.608;19.366;2023-10-13T01:10:13;22.70;;;22.70;;
80115;SDS011;69423;47.608;19.366;2023-10-13T01:10:45;22.33;;;22.33;;
80115;SDS011;69423;47.608;19.366;2023-10-13T01:11:17;23.33;;;23.33;;
80115;SDS011;69423;47.608;19.366;2023-10-13T01:11:49;22.80;;;22.80;;
80115;SDS011;69423;47.608;19.366;2023-10-13T01:12:25;22.70;;;22.70;;
80115;SDS011;69423;47.608;19.366;2023-10-13T01:12:56;23.17;;;23.17;;
80115;SDS011;69423;47.608;19.366;2023-10-13T01:13:27;23.13;;;23.13;;
80115;SDS011;69423;47.608;19.366;2023-10-13T01:14:01;23.17;;;23.17;;
80115;SDS011;69423;47.608;19.366;2023-10-13T01:14:34;23.67;;;23.67;;
80115;SDS011;69423;47.608;19.366;2023-10-13T01:15:06;22.67;;;22.67;;
80115;SDS011;69423;47.608;19.366;2023-10-13T01:15:40;23.00;;;22.90;;
80115;SDS011;69423;47.608;19.366;2023-10-13T01:16:11;23.63;;;23.50;;
80115;SDS011;69423;47.608;19.366;2023-10-13T01:16:43;23.97;;;23.67;;
80115;SDS011;69423;47.608;19.366;2023-10-13T01:17:15;23.47;;;23.47;;
80115;SDS011;69423;47.608;19.366;2023-10-13T01:17:46;23.10;;;23.10;;
80115;SDS011;69423;47.608;19.366;2023-10-13T01:18:17;22.63;;;22.63;;
80115;SDS011;69423;47.608;19.366;2023-10-13T01:18:48;22.87;;;22.83;;
80115;SDS011;69423;47.608;19.366;2023-10-13T01:19:20;22.90;;;22.90;;
80115;SDS011;69423;47.608;19.366;2023-10-13T01:19:55;22.03;;;22.03;;
80115;SDS011;69423;47.608;19.366;2023-10-13T01:20:29;22.30;;;22.30;;
80115;SDS011;69423;47.608;19.366;2023-10-13T01:21:00;22.43;;;22.43;;
80115;SDS011;69423;47.608;19.366;2023-10-13T01:21:34;23.30;;;23.30;;
80115;SDS011;69423;47.608;19.366;2023-10-13T01:22:05;22.70;;;22.70;;
80115;SDS011;69423;47.608;19.366;2023-10-13T01:22:37;22.63;;;22.63;;
80115;SDS011;69423;47.608;19.366;2023-10-13T01:23:11;23.00;;;23.00;;
80115;SDS011;69423;47.608;19.366;2023-10-13T01:23:49;23.43;;;23.43;;
80115;SDS011;69423;47.608;19.366;2023-10-13T01:24:21;23.20;;;23.20;;
80115;SDS011;69423;47.608;19.366;2023-10-13T01:24:54;22.90;;;22.90;;
80115;SDS011;69423;47.608;19.366;2023-10-13T01:25:35;22.37;;;22.37;;
80115;SDS011;69423;47.608;19.366;2023-10-13T01:26:06;22.77;;;22.77;;
80115;SDS011;69423;47.608;19.366;2023-10-13T01:26:37;23.97;;;23.97;;
80115;SDS011;69423;47.608;19.366;2023-10-13T01:27:09;23.83;;;23.83;;
80115;SDS011;69423;47.608;19.366;2023-10-13T01:27:51;23.73;;;23.73;;
80115;SDS011;69423;47.608;19.366;2023-10-13T01:28:23;24.00;;;24.00;;
80115;SDS011;69423;47.608;19.366;2023-10-13T01:28:57;22.83;;;22.83;;
80115;SDS011;69423;47.608;19.366;2023-10-13T01:29:28;22.77;;;22.77;;
80115;SDS011;69423;47.608;19.366;2023-10-13T01:29:59;22.50;;;22.50;;
80115;SDS011;69423;47.608;19.366;2023-10-13T01:30:36;22.27;;;22.27;;
80115;SDS011;69423;47.608;19.366;2023-10-13T01:31:10;23.17;;;23.17;;
80115;SDS011;69423;47.608;19.366;2023-10-13T01:31:44;24.33;;;24.23;;
80115;SDS011;69423;47.608;19.366;2023-10-13T01:32:17;23.50;;;23.47;;
80115;SDS011;69423;47.608;19.366;2023-10-13T01:32:53;23.53;;;23.53;;
80115;SDS011;69423;47.608;19.366;2023-10-13T01:33:24;24.13;;;24.10;;
80115;SDS011;69423;47.608;19.366;2023-10-13T01:33:59;23.63;;;23.63;;
80115;SDS011;69423;47.608;19.366;2023-10-13T01:34:30;23.47;;;23.47;;
80115;SDS011;69423;47.608;19.366;2023-10-13T01:35:04;23.23;;;23.23;;
80115;SDS011;69423;47.608;19.366;2023-10-13T01:35:37;23.67;;;23.67;;
80115;SDS011;69423;47.608;19.366;2023-10-13T01:36:12;24.50;;;24.50;;
80115;SDS011;69423;47.608;19.366;2023-10-13T01:36:43;23.77;;;23.77;;
80115;SDS011;69423;47.608;19.366;2023-10-13T01:37:15;23.37;;;23.37;;
80115;SDS011;69423;47.608;19.366;2023-10-13T01:37:46;23.60;;;23.60;;
80115;SDS011;69423;47.608;19.366;2023-10-13T01:38:17;23.73;;;23.73;;
80115;SDS011;69423;47.608;19.366;2023-10-13T01:38:49;23.50;;;23.50;;
80115;SDS011;69423;47.608;19.366;2023-10-13T01:39:24;23.60;;;23.60;;
80115;SDS011;69423;47.608;19.366;2023-10-13T01:39:59;23.23;;;23.23;;
80115;SDS011;69423;47.608;19.366;2023-10-13T01:40:30;22.70;;;22.70;;
80115;SDS011;69423;47.608;19.366;2023-10-13T01:41:07;23.40;;;23.40;;
80115;SDS011;69423;47.608;19.366;2023-10-13T01:41:39;23.53;;;23.53;;
80115;SDS011;69423;47.608;19.366;2023-10-13T01:42:10;22.90;;;22.90;;
80115;SDS011;69423;47.608;19.366;2023-10-13T01:42:45;23.20;;;23.20;;
80115;SDS011;69423;47.608;19.366;2023-10-13T01:43:17;23.87;;;23.87;;
80115;SDS011;69423;47.608;19.366;2023-10-13T01:43:48;23.70;;;23.67;;
80115;SDS011;69423;47.608;19.366;2023-10-13T01:44:19;24.30;;;24.30;;
80115;SDS011;69423;47.608;19.366;2023-10-13T01:44:50;23.43;;;23.33;;
80115;SDS011;69423;47.608;19.366;2023-10-13T01:45:22;25.13;;;24.93;;
80115;SDS011;69423;47.608;19.366;2023-10-13T01:45:59;24.23;;;24.23;;
80115;SDS011;69423;47.608;19.366;2023-10-13T01:46:30;24.33;;;24.33;;
80115;SDS011;69423;47.608;19.366;2023-10-13T01:47:01;23.83;;;23.83;;
80115;SDS011;69423;47.608;19.366;2023-10-13T01:47:39;24.03;;;23.83;;
80115;SDS011;69423;47.608;19.366;2023-10-13T01:48:10;24.23;;;24.20;;
80115;SDS011;69423;47.608;19.366;2023-10-13T01:48:41;24.60;;;24.60;;
80115;SDS011;69423;47.608;19.366;2023-10-13T01:49:14;25.63;;;25.63;;
80115;SDS011;69423;47.608;19.366;2023-10-13T01:49:49;25.07;;;25.07;;
80115;SDS011;69423;47.608;19.366;2023-10-13T01:50:21;25.17;;;25.17;;
80115;SDS011;69423;47.608;19.366;2023-10-13T01:50:59;24.53;;;24.50;;
80115;SDS011;69423;47.608;19.366;2023-10-13T01:51:31;24.63;;;24.63;;
80115;SDS011;69423;47.608;19.366;2023-10-13T01:52:02;23.93;;;23.93;;
80115;SDS011;69423;47.608;19.366;2023-10-13T01:52:34;23.67;;;23.67;;
80115;SDS011;69423;47.608;19.366;2023-10-13T01:53:05;24.13;;;24.13;;
80115;SDS011;69423;47.608;19.366;2023-10-13T01:53:48;23.40;;;23.40;;
80115;SDS011;69423;47.608;19.366;2023-10-13T01:54:26;24.27;;;24.27;;
80115;SDS011;69423;47.608;19.366;2023-10-13T01:54:58;25.13;;;25.00;;
80115;SDS011;69423;47.608;19.366;2023-10-13T01:55:31;24.10;;;24.00;;
80115;SDS011;69423;47.608;19.366;2023-10-13T01:56:09;24.73;;;24.73;;
80115;SDS011;69423;47.608;19.366;2023-10-13T01:56:41;24.10;;;24.10;;
80115;SDS011;69423;47.608;19.366;2023-10-13T01:57:15;24.87;;;24.57;;
80115;SDS011;69423;47.608;19.366;2023-10-13T01:57:50;23.77;;;23.67;;
80115;SDS011;69423;47.608;19.366;2023-10-13T01:58:22;23.97;;;23.97;;
80115;SDS011;69423;47.608;19.366;2023-10-13T01:58:56;24.77;;;24.77;;
80115;SDS011;69423;47.608;19.366;2023-10-13T01:59:27;23.87;;;23.87;;
80115;SDS011;69423;47.608;19.366;2023-10-13T01:59:58;24.30;;;24.30;;
80115;SDS011;69423;47.608;19.366;2023-10-13T02:00:39;23.17;;;23.17;;
80115;SDS011;69423;47.608;19.366;2023-10-13T02:01:12;22.93;;;22.93;;
80115;SDS011;69423;47.608;19.366;2023-10-13T02:01:44;24.30;;;24.30;;
80115;SDS011;69423;47.608;19.366;2023-10-13T02:02:15;23.67;;;23.67;;
80115;SDS011;69423;47.608;19.366;2023-10-13T02:02:59;23.97;;;23.97;;
80115;SDS011;69423;47.608;19.366;2023-10-13T02:03:31;23.30;;;23.30;;
80115;SDS011;69423;47.608;19.366;2023-10-13T02:04:02;23.10;;;23.10;;
80115;SDS011;69423;47.608;19.366;2023-10-13T02:04:34;23.57;;;23.53;;
80115;SDS011;69423;47.608;19.366;2023-10-13T02:05:05;23.33;;;23.33;;
80115;SDS011;69423;47.608;19.366;2023-10-13T02:05:36;22.70;;;22.70;;
80115;SDS011;69423;47.608;19.366;2023-10-13T02:06:07;22.97;;;22.97;;
80115;SDS011;69423;47.608;19.366;2023-10-13T02:06:41;22.97;;;22.97;;
80115;SDS011;69423;47.608;19.366;2023-10-13T02:07:13;23.67;;;23.67;;
80115;SDS011;69423;47.608;19.366;2023-10-13T02:07:46;23.93;;;23.93;;
80115;SDS011;69423;47.608;19.366;2023-10-13T02:08:17;25.27;;;25.27;;
80115;SDS011;69423;47.608;19.366;2023-10-13T02:08:53;24.17;;;24.17;;
80115;SDS011;69423;47.608;19.366;2023-10-13T02:09:27;23.93;;;23.93;;
80115;SDS011;69423;47.608;19.366;2023-10-13T02:10:00;23.47;;;23.40;;
80115;SDS011;69423;47.608;19.366;2023-10-13T02:10:36;23.13;;;23.13;;
80115;SDS011;69423;47.608;19.366;2023-10-13T02:11:13;22.73;;;22.73;;
80115;SDS011;69423;47.608;19.366;2023-10-13T02:11:49;23.73;;;23.73;;
80115;SDS011;69423;47.608;19.366;2023-10-13T02:12:24;23.40;;;23.40;;
80115;SDS011;69423;47.608;19.366;2023-10-13T02:13:14;22.23;;;22.23;;
80115;SDS011;69423;47.608;19.366;2023-10-13T02:13:47;22.50;;;22.50;;
80115;SDS011;69423;47.608;19.366;2023-10-13T02:14:20;22.87;;;22.87;;
80115;SDS011;69423;47.608;19.366;2023-10-13T02:14:56;22.60;;;22.60;;
80115;SDS011;69423;47.608;19.366;2023-10-13T02:15:31;22.97;;;22.93;;
80115;SDS011;69423;47.608;19.366;2023-10-13T02:16:05;23.03;;;22.90;;
80115;SDS011;69423;47.608;19.366;2023-10-13T02:16:40;23.40;;;23.23;;
80115;SDS011;69423;47.608;19.366;2023-10-13T02:17:11;23.27;;;23.27;;
80115;SDS011;69423;47.608;19.366;2023-10-13T02:17:43;22.97;;;22.87;;
80115;SDS011;69423;47.608;19.366;2023-10-13T02:18:15;22.97;;;22.93;;
80115;SDS011;69423;47.608;19.366;2023-10-13T02:19:04;22.63;;;22.63;;
80115;SDS011;69423;47.608;19.366;2023-10-13T02:19:35;22.70;;;22.70;;
80115;SDS011;69423;47.608;19.366;2023-10-13T02:20:10;22.70;;;22.70;;
80115;SDS011;69423;47.608;19.366;2023-10-13T02:20:47;22.37;;;22.37;;
80115;SDS011;69423;47.608;19.366;2023-10-13T02:21:24;23.03;;;23.03;;
80115;SDS011;69423;47.608;19.366;2023-10-13T02:22:02;23.50;;;23.50;;
80115;SDS011;69423;47.608;19.366;2023-10-13T02:22:34;22.43;;;22.43;;
80115;SDS011;69423;47.608;19.366;2023-10-13T02:23:07;23.10;;;23.10;;
80115;SDS011;69423;47.608;19.366;2023-10-13T02:23:41;22.90;;;22.90;;
80115;SDS011;69423;47.608;19.366;2023-10-13T02:24:15;22.90;;;22.80;;
80115;SDS011;69423;47.608;19.366;2023-10-13T02:24:49;23.37;;;23.37;;
80115;SDS011;69423;47.608;19.366;2023-10-13T02:25:22;23.33;;;23.33;;
80115;SDS011;69423;47.608;19.366;2023-10-13T02:26:05;22.27;;;22.27;;
80115;SDS011;69423;47.608;19.366;2023-10-13T02:26:47;22.40;;;22.40;;
80115;SDS011;69423;47.608;19.366;2023-10-13T02:27:18;23.67;;;23.67;;
80115;SDS011;69423;47.608;19.366;2023-10-13T02:27:53;23.17;;;23.17;;
80115;SDS011;69423;47.608;19.366;2023-10-13T02:28:29;22.20;;;22.20;;
80115;SDS011;69423;47.608;19.366;2023-10-13T02:29:05;21.90;;;21.90;;
80115;SDS011;69423;47.608;19.366;2023-10-13T02:29:41;22.27;;;22.27;;
80115;SDS011;69423;47.608;19.366;2023-10-13T02:30:12;21.97;;;21.97;;
80115;SDS011;69423;47.608;19.366;2023-10-13T02:30:45;22.23;;;22.23;;
80115;SDS011;69423;47.608;19.366;2023-10-13T02:31:18;23.20;;;23.20;;
80115;SDS011;69423;47.608;19.366;2023-10-13T02:31:50;22.13;;;22.07;;
80115;SDS011;69423;47.608;19.366;2023-10-13T02:32:28;21.93;;;21.87;;
80115;SDS011;69423;47.608;19.366;2023-10-13T02:33:00;22.47;;;22.47;;
80115;SDS011;69423;47.608;19.366;2023-10-13T02:33:36;22.10;;;22.10;;
80115;SDS011;69423;47.608;19.366;2023-10-13T02:34:15;21.70;;;21.60;;
80115;SDS011;69423;47.608;19.366;2023-10-13T02:34:46;20.70;;;20.67;;
80115;SDS011;69423;47.608;19.366;2023-10-13T02:35:17;21.17;;;21.17;;
80115;SDS011;69423;47.608;19.366;2023-10-13T02:35:48;21.57;;;21.47;;
80115;SDS011;69423;47.608;19.366;2023-10-13T02:36:25;20.93;;;20.93;;
80115;SDS011;69423;47.608;19.366;2023-10-13T02:37:06;20.83;;;20.83;;
80115;SDS011;69423;47.608;19.366;2023-10-13T02:37:40;20.00;;;20.00;;
80115;SDS011;69423;47.608;19.366;2023-10-13T02:38:14;20.70;;;20.70;;
80115;SDS011;69423;47.608;19.366;2023-10-13T02:38:47;20.90;;;20.90;;
80115;SDS011;69423;47.608;19.366;2023-10-13T02:39:18;21.73;;;21.73;;
80115;SDS011;69423;47.608;19.366;2023-10-13T02:39:57;23.13;;;22.83;;
80115;SDS011;69423;47.608;19.366;2023-10-13T02:40:28;21.90;;;21.80;;
80115;SDS011;69423;47.608;19.366;2023-10-13T02:41:00;21.47;;;21.47;;
80115;SDS011;69423;47.608;19.366;2023-10-13T02:41:37;21.77;;;21.63;;
80115;SDS011;69423;47.608;19.366;2023-10-13T02:42:08;21.77;;;21.67;;
80115;SDS011;69423;47.608;19.366;2023-10-13T02:42:55;20.90;;;20.90;;
80115;SDS011;69423;47.608;19.366;2023-10-13T02:43:26;21.97;;;21.97;;
80115;SDS011;69423;47.608;19.366;2023-10-13T02:44:04;20.93;;;20.93;;
80115;SDS011;69423;47.608;19.366;2023-10-13T02:44:36;21.23;;;21.23;;
80115;SDS011;69423;47.608;19.366;2023-10-13T02:45:11;21.03;;;21.03;;
80115;SDS011;69423;47.608;19.366;2023-10-13T02:45:45;21.43;;;21.43;;
80115;SDS011;69423;47.608;19.366;2023-10-13T02:46:28;22.03;;;22.03;;
80115;SDS011;69423;47.608;19.366;2023-10-13T02:46:59;23.40;;;23.40;;
80115;SDS011;69423;47.608;19.366;2023-10-13T02:47:30;23.57;;;23.57;;
80115;SDS011;69423;47.608;19.366;2023-10-13T02:48:03;23.60;;;23.60;;
80115;SDS011;69423;47.608;19.366;2023-10-13T02:48:47;21.83;;;21.83;;
80115;SDS011;69423;47.608;19.366;2023-10-13T02:49:24;22.83;;;22.83;;
80115;SDS011;69423;47.608;19.366;2023-10-13T02:49:57;23.03;;;23.03;;
80115;SDS011;69423;47.608;19.366;2023-10-13T02:50:31;23.07;;;23.07;;
80115;SDS011;69423;47.608;19.366;2023-10-13T02:51:03;22.60;;;22.60;;
80115;SDS011;69423;47.608;19.366;2023-10-13T02:51:37;22.97;;;22.97;;
80115;SDS011;69423;47.608;19.366;2023-10-13T02:52:12;22.87;;;22.87;;
80115;SDS011;69423;47.608;19.366;2023-10-13T02:52:43;22.17;;;22.17;;
80115;SDS011;69423;47.608;19.366;2023-10-13T02:53:18;21.67;;;21.67;;
80115;SDS011;69423;47.608;19.366;2023-10-13T02:53:49;22.70;;;22.70;;
80115;SDS011;69423;47.608;19.366;2023-10-13T02:54:20;22.43;;;22.43;;
80115;SDS011;69423;47.608;19.366;2023-10-13T02:54:51;22.03;;;22.03;;
80115;SDS011;69423;47.608;19.366;2023-10-13T02:55:22;22.80;;;22.80;;
80115;SDS011;69423;47.608;19.366;2023-10-13T02:55:56;22.37;;;22.37;;
80115;SDS011;69423;47.608;19.366;2023-10-13T02:56:34;21.33;;;21.33;;
80115;SDS011;69423;47.608;19.366;2023-10-13T02:57:06;22.27;;;22.27;;
80115;SDS011;69423;47.608;19.366;2023-10-13T02:57:37;22.90;;;22.90;;
80115;SDS011;69423;47.608;19.366;2023-10-13T02:58:10;22.40;;;22.40;;
80115;SDS011;69423;47.608;19.366;2023-10-13T02:58:45;21.37;;;21.37;;
80115;SDS011;69423;47.608;19.366;2023-10-13T02:59:24;22.17;;;22.17;;
80115;SDS011;69423;47.608;19.366;2023-10-13T03:00:05;22.27;;;22.27;;
80115;SDS011;69423;47.608;19.366;2023-10-13T03:00:43;21.77;;;21.77;;
80115;SDS011;69423;47.608;19.366;2023-10-13T03:01:14;21.70;;;21.70;;
80115;SDS011;69423;47.608;19.366;2023-10-13T03:01:48;21.87;;;21.87;;
80115;SDS011;69423;47.608;19.366;2023-10-13T03:02:23;21.97;;;21.97;;
80115;SDS011;69423;47.608;19.366;2023-10-13T03:02:58;22.03;;;22.03;;
80115;SDS011;69423;47.608;19.366;2023-10-13T03:03:29;20.33;;;20.33;;
80115;SDS011;69423;47.608;19.366;2023-10-13T03:04:03;20.67;;;20.67;;
80115;SDS011;69423;47.608;19.366;2023-10-13T03:04:39;21.03;;;21.03;;
80115;SDS011;69423;47.608;19.366;2023-10-13T03:05:10;19.63;;;19.63;;
80115;SDS011;69423;47.608;19.366;2023-10-13T03:05:44;21.17;;;21.17;;
80115;SDS011;69423;47.608;19.366;2023-10-13T03:06:16;21.27;;;21.27;;
80115;SDS011;69423;47.608;19.366;2023-10-13T03:06:54;21.00;;;20.97;;
80115;SDS011;69423;47.608;19.366;2023-10-13T03:07:30;20.77;;;20.77;;
80115;SDS011;69423;47.608;19.366;2023-10-13T03:08:01;20.13;;;20.13;;
80115;SDS011;69423;47.608;19.366;2023-10-13T03:08:35;20.30;;;20.30;;
80115;SDS011;69423;47.608;19.366;2023-10-13T03:09:08;21.37;;;21.37;;
80115;SDS011;69423;47.608;19.366;2023-10-13T03:09:48;20.97;;;20.97;;
80115;SDS011;69423;47.608;19.366;2023-10-13T03:10:22;21.70;;;21.70;;
80115;SDS011;69423;47.608;19.366;2023-10-13T03:10:59;21.17;;;21.17;;
80115;SDS011;69423;47.608;19.366;2023-10-13T03:11:32;21.43;;;21.30;;
80115;SDS011;69423;47.608;19.366;2023-10-13T03:12:03;20.87;;;20.83;;
80115;SDS011;69423;47.608;19.366;2023-10-13T03:12:35;21.53;;;21.53;;
80115;SDS011;69423;47.608;19.366;2023-10-13T03:13:07;21.50;;;21.50;;
80115;SDS011;69423;47.608;19.366;2023-10-13T03:13:40;21.37;;;21.30;;
80115;SDS011;69423;47.608;19.366;2023-10-13T03:14:16;21.37;;;21.37;;
80115;SDS011;69423;47.608;19.366;2023-10-13T03:15:03;22.50;;;22.47;;
80115;SDS011;69423;47.608;19.366;2023-10-13T03:16:00;20.73;;;20.67;;
80115;SDS011;69423;47.608;19.366;2023-10-13T03:16:33;21.40;;;21.37;;
80115;SDS011;69423;47.608;19.366;2023-10-13T03:17:05;21.13;;;21.13;;
80115;SDS011;69423;47.608;19.366;2023-10-13T03:17:36;21.57;;;21.50;;
80115;SDS011;69423;47.608;19.366;2023-10-13T03:18:11;21.27;;;21.23;;
80115;SDS011;69423;47.608;19.366;2023-10-13T03:18:48;21.10;;;20.93;;